Terminal Aerodrome Forecast
Issued by NWS Charleston, WV

Current Version | Previous Version | Text Only | Print | Product List | Glossary Off
Versions: 1 2 3 4 5 6 7 8 9 10 11 12 13 14 15 16 17 18 19 20 21 22 23 24 25 26 27 28

000
FTUS41 KRLX 150929 AAC
TAFEKN
TAF AMD
KEKN 150929Z 1509/1606 00000KT 1/2SM FZFG BKN002
     FM151300 14003KT P6SM FEW250
     FM151800 16007KT P6SM SCT200=

USA.gov is the U.S. government's official web portal to all federal, state and local government web resources and services.